sensor_id;sensor_type;location;lat;lon;timestamp;pressure;altitude;pressure_sealevel;temperature
65765;BMP180;52915;53.718;19.946;2023-03-12T00:00:57;98970.60;;;-1.20
65765;BMP180;52915;53.718;19.946;2023-03-12T00:06:09;98976.00;;;-1.00
65765;BMP180;52915;53.718;19.946;2023-03-12T00:11:18;98964.60;;;-0.92
65765;BMP180;52915;53.718;19.946;2023-03-12T00:16:23;98960.80;;;-0.84
65765;BMP180;52915;53.718;19.946;2023-03-12T00:21:27;98956.60;;;-0.60
65765;BMP180;52915;53.718;19.946;2023-03-12T00:26:31;98947.80;;;-0.60
65765;BMP180;52915;53.718;19.946;2023-03-12T00:31:35;98951.00;;;-0.50
65765;BMP180;52915;53.718;19.946;2023-03-12T00:36:38;98939.80;;;-0.40
65765;BMP180;52915;53.718;19.946;2023-03-12T00:41:43;98935.80;;;-0.40
65765;BMP180;52915;53.718;19.946;2023-03-12T00:46:48;98936.20;;;-0.26
65765;BMP180;52915;53.718;19.946;2023-03-12T00:51:52;98928.80;;;-0.30
65765;BMP180;52915;53.718;19.946;2023-03-12T00:56:56;98918.60;;;-0.20
65765;BMP180;52915;53.718;19.946;2023-03-12T01:02:00;98925.60;;;-0.10
65765;BMP180;52915;53.718;19.946;2023-03-12T01:07:04;98923.20;;;-0.10
65765;BMP180;52915;53.718;19.946;2023-03-12T01:12:08;98917.20;;;0.00
65765;BMP180;52915;53.718;19.946;2023-03-12T01:17:12;98913.60;;;0.00
65765;BMP180;52915;53.718;19.946;2023-03-12T01:22:16;98913.20;;;0.10
65765;BMP180;52915;53.718;19.946;2023-03-12T01:27:20;98914.80;;;0.10
65765;BMP180;52915;53.718;19.946;2023-03-12T01:32:24;98909.40;;;0.20
65765;BMP180;52915;53.718;19.946;2023-03-12T01:37:31;98908.20;;;0.30
65765;BMP180;52915;53.718;19.946;2023-03-12T01:42:35;98901.20;;;0.28
65765;BMP180;52915;53.718;19.946;2023-03-12T01:47:39;98895.40;;;0.32
65765;BMP180;52915;53.718;19.946;2023-03-12T01:52:43;98891.00;;;0.40
65765;BMP180;52915;53.718;19.946;2023-03-12T01:57:56;98893.00;;;0.48
65765;BMP180;52915;53.718;19.946;2023-03-12T02:03:06;98890.00;;;0.60
65765;BMP180;52915;53.718;19.946;2023-03-12T02:08:14;98900.40;;;0.60
65765;BMP180;52915;53.718;19.946;2023-03-12T02:13:18;98891.60;;;0.64
65765;BMP180;52915;53.718;19.946;2023-03-12T02:18:23;98895.80;;;0.80
65765;BMP180;52915;53.718;19.946;2023-03-12T02:28:49;98903.80;;;0.80
65765;BMP180;52915;53.718;19.946;2023-03-12T02:33:54;98912.20;;;0.70
65765;BMP180;52915;53.718;19.946;2023-03-12T02:38:58;98914.00;;;0.78
65765;BMP180;52915;53.718;19.946;2023-03-12T02:44:17;98918.80;;;0.80
65765;BMP180;52915;53.718;19.946;2023-03-12T02:49:26;98908.80;;;0.70
65765;BMP180;52915;53.718;19.946;2023-03-12T02:54:30;98919.20;;;0.80
65765;BMP180;52915;53.718;19.946;2023-03-12T02:59:34;98918.80;;;0.80
65765;BMP180;52915;53.718;19.946;2023-03-12T03:04:39;98919.40;;;0.80
65765;BMP180;52915;53.718;19.946;2023-03-12T03:09:43;98921.80;;;0.70
65765;BMP180;52915;53.718;19.946;2023-03-12T03:14:47;98933.60;;;0.70
65765;BMP180;52915;53.718;19.946;2023-03-12T03:19:52;98934.80;;;0.76
65765;BMP180;52915;53.718;19.946;2023-03-12T03:24:56;98936.40;;;0.70
65765;BMP180;52915;53.718;19.946;2023-03-12T03:30:00;98945.40;;;0.80
65765;BMP180;52915;53.718;19.946;2023-03-12T03:35:05;98950.60;;;0.70
65765;BMP180;52915;53.718;19.946;2023-03-12T03:40:10;98960.00;;;0.70
65765;BMP180;52915;53.718;19.946;2023-03-12T03:45:14;98948.20;;;0.80
65765;BMP180;52915;53.718;19.946;2023-03-12T03:50:18;98952.20;;;0.70
65765;BMP180;52915;53.718;19.946;2023-03-12T03:55:22;98958.40;;;0.80
65765;BMP180;52915;53.718;19.946;2023-03-12T04:00:26;98960.60;;;0.70
65765;BMP180;52915;53.718;19.946;2023-03-12T04:05:31;98971.20;;;0.70
65765;BMP180;52915;53.718;19.946;2023-03-12T04:10:36;98968.20;;;0.70
65765;BMP180;52915;53.718;19.946;2023-03-12T04:15:46;98975.00;;;0.60
65765;BMP180;52915;53.718;19.946;2023-03-12T04:20:50;98983.60;;;0.60
65765;BMP180;52915;53.718;19.946;2023-03-12T04:25:54;98987.40;;;0.40
65765;BMP180;52915;53.718;19.946;2023-03-12T04:31:01;98987.20;;;0.40
65765;BMP180;52915;53.718;19.946;2023-03-12T04:36:06;98995.20;;;0.30
65765;BMP180;52915;53.718;19.946;2023-03-12T04:41:13;98998.00;;;0.26
65765;BMP180;52915;53.718;19.946;2023-03-12T04:46:17;99001.00;;;0.30
65765;BMP180;52915;53.718;19.946;2023-03-12T04:51:21;99007.20;;;0.10
65765;BMP180;52915;53.718;19.946;2023-03-12T04:56:25;99012.60;;;0.10
65765;BMP180;52915;53.718;19.946;2023-03-12T05:01:33;99008.80;;;0.10
65765;BMP180;52915;53.718;19.946;2023-03-12T05:06:37;99014.40;;;0.10
65765;BMP180;52915;53.718;19.946;2023-03-12T05:11:41;99021.20;;;0.10
65765;BMP180;52915;53.718;19.946;2023-03-12T05:16:45;99016.60;;;0.00
65765;BMP180;52915;53.718;19.946;2023-03-12T05:21:49;99019.00;;;0.02
65765;BMP180;52915;53.718;19.946;2023-03-12T05:26:53;99027.60;;;0.04
65765;BMP180;52915;53.718;19.946;2023-03-12T05:31:57;99032.80;;;0.08
65765;BMP180;52915;53.718;19.946;2023-03-12T05:37:01;99035.60;;;0.10
65765;BMP180;52915;53.718;19.946;2023-03-12T05:42:05;99044.20;;;0.10
65765;BMP180;52915;53.718;19.946;2023-03-12T05:47:09;99051.20;;;0.20
65765;BMP180;52915;53.718;19.946;2023-03-12T05:52:15;99051.20;;;0.20
65765;BMP180;52915;53.718;19.946;2023-03-12T05:57:18;99063.60;;;0.40
65765;BMP180;52915;53.718;19.946;2023-03-12T06:02:24;99067.60;;;0.60
65765;BMP180;52915;53.718;19.946;2023-03-12T06:07:28;99071.80;;;0.80
65765;BMP180;52915;53.718;19.946;2023-03-12T06:12:34;99084.80;;;1.00
65765;BMP180;52915;53.718;19.946;2023-03-12T06:17:40;99079.80;;;1.10
65765;BMP180;52915;53.718;19.946;2023-03-12T06:22:44;99089.00;;;1.30
65765;BMP180;52915;53.718;19.946;2023-03-12T06:27:48;99089.00;;;1.50
65765;BMP180;52915;53.718;19.946;2023-03-12T06:32:52;99097.80;;;1.60
65765;BMP180;52915;53.718;19.946;2023-03-12T06:37:56;99102.40;;;1.66
65765;BMP180;52915;53.718;19.946;2023-03-12T06:43:00;99120.80;;;1.70
65765;BMP180;52915;53.718;19.946;2023-03-12T06:48:04;99120.40;;;2.00
65765;BMP180;52915;53.718;19.946;2023-03-12T06:53:08;99131.60;;;2.30
65765;BMP180;52915;53.718;19.946;2023-03-12T06:58:12;99136.80;;;2.70
65765;BMP180;52915;53.718;19.946;2023-03-12T07:03:17;99149.20;;;2.86
65765;BMP180;52915;53.718;19.946;2023-03-12T07:08:22;99143.00;;;3.02
65765;BMP180;52915;53.718;19.946;2023-03-12T07:13:26;99148.40;;;3.20
65765;BMP180;52915;53.718;19.946;2023-03-12T07:18:30;99161.40;;;3.40
65765;BMP180;52915;53.718;19.946;2023-03-12T07:23:35;99171.40;;;3.36
65765;BMP180;52915;53.718;19.946;2023-03-12T07:28:40;99176.20;;;2.82
65765;BMP180;52915;53.718;19.946;2023-03-12T07:33:44;99183.40;;;2.60
65765;BMP180;52915;53.718;19.946;2023-03-12T07:38:48;99175.80;;;3.00
65765;BMP180;52915;53.718;19.946;2023-03-12T07:43:53;99189.60;;;3.20
65765;BMP180;52915;53.718;19.946;2023-03-12T07:48:58;99191.80;;;3.20
65765;BMP180;52915;53.718;19.946;2023-03-12T07:54:02;99195.60;;;3.40
65765;BMP180;52915;53.718;19.946;2023-03-12T07:59:07;99207.80;;;3.30
65765;BMP180;52915;53.718;19.946;2023-03-12T08:04:11;99204.20;;;3.50
65765;BMP180;52915;53.718;19.946;2023-03-12T08:09:15;99200.20;;;4.10
65765;BMP180;52915;53.718;19.946;2023-03-12T08:14:19;99210.80;;;4.60
65765;BMP180;52915;53.718;19.946;2023-03-12T08:19:24;99212.60;;;4.94
65765;BMP180;52915;53.718;19.946;2023-03-12T08:24:28;99230.60;;;4.80
65765;BMP180;52915;53.718;19.946;2023-03-12T08:29:32;99231.00;;;4.20
65765;BMP180;52915;53.718;19.946;2023-03-12T08:34:37;99241.40;;;3.90
65765;BMP180;52915;53.718;19.946;2023-03-12T08:39:41;99234.40;;;3.60
65765;BMP180;52915;53.718;19.946;2023-03-12T08:44:45;99258.20;;;3.50
65765;BMP180;52915;53.718;19.946;2023-03-12T08:49:49;99265.60;;;3.40
65765;BMP180;52915;53.718;19.946;2023-03-12T08:54:53;99255.60;;;3.40
65765;BMP180;52915;53.718;19.946;2023-03-12T08:59:57;99281.40;;;3.80
65765;BMP180;52915;53.718;19.946;2023-03-12T09:05:02;99277.40;;;3.86
65765;BMP180;52915;53.718;19.946;2023-03-12T09:10:07;99285.60;;;3.88
65765;BMP180;52915;53.718;19.946;2023-03-12T09:15:11;99276.40;;;3.90
65765;BMP180;52915;53.718;19.946;2023-03-12T09:20:16;99267.20;;;5.24
65765;BMP180;52915;53.718;19.946;2023-03-12T09:25:20;99276.00;;;6.26
65765;BMP180;52915;53.718;19.946;2023-03-12T09:30:26;99291.20;;;6.50
65765;BMP180;52915;53.718;19.946;2023-03-12T09:35:32;99306.60;;;7.04
65765;BMP180;52915;53.718;19.946;2023-03-12T09:40:37;99310.80;;;7.60
65765;BMP180;52915;53.718;19.946;2023-03-12T09:45:46;99324.60;;;6.98
65765;BMP180;52915;53.718;19.946;2023-03-12T09:50:52;99328.40;;;6.40
65765;BMP180;52915;53.718;19.946;2023-03-12T09:55:58;99334.60;;;6.00
65765;BMP180;52915;53.718;19.946;2023-03-12T10:01:28;99343.00;;;6.40
65765;BMP180;52915;53.718;19.946;2023-03-12T10:28:27;99393.80;;;4.50
65765;BMP180;52915;53.718;19.946;2023-03-12T10:33:53;99443.60;;;3.80
65765;BMP180;52915;53.718;19.946;2023-03-12T10:38:58;99447.20;;;3.70
65765;BMP180;52915;53.718;19.946;2023-03-12T10:44:07;99468.00;;;3.30
65765;BMP180;52915;53.718;19.946;2023-03-12T10:54:39;99436.20;;;3.68
65765;BMP180;52915;53.718;19.946;2023-03-12T10:59:46;99422.20;;;5.22
65765;BMP180;52915;53.718;19.946;2023-03-12T11:04:52;99446.20;;;6.40
65765;BMP180;52915;53.718;19.946;2023-03-12T11:10:21;99433.00;;;6.58
65765;BMP180;52915;53.718;19.946;2023-03-12T11:26:52;99467.80;;;8.06
65765;BMP180;52915;53.718;19.946;2023-03-12T11:43:40;99503.00;;;6.70
65765;BMP180;52915;53.718;19.946;2023-03-12T12:00:02;99500.00;;;6.90
65765;BMP180;52915;53.718;19.946;2023-03-12T12:16:48;99506.80;;;7.30
65765;BMP180;52915;53.718;19.946;2023-03-12T12:33:17;99530.60;;;7.70
65765;BMP180;52915;53.718;19.946;2023-03-12T12:38:48;99544.40;;;7.90
65765;BMP180;52915;53.718;19.946;2023-03-12T12:44:14;99555.20;;;8.44
65765;BMP180;52915;53.718;19.946;2023-03-12T12:55:12;99553.60;;;8.24
65765;BMP180;52915;53.718;19.946;2023-03-12T13:00:36;99562.80;;;8.50
65765;BMP180;52915;53.718;19.946;2023-03-12T13:05:53;99553.20;;;8.94
65765;BMP180;52915;53.718;19.946;2023-03-12T13:11:05;99562.60;;;9.04
65765;BMP180;52915;53.718;19.946;2023-03-12T13:16:39;99589.40;;;8.60
65765;BMP180;52915;53.718;19.946;2023-03-12T13:22:28;99594.40;;;8.00
65765;BMP180;52915;53.718;19.946;2023-03-12T13:27:30;99599.20;;;7.40
65765;BMP180;52915;53.718;19.946;2023-03-12T13:43:52;99620.80;;;6.50
65765;BMP180;52915;53.718;19.946;2023-03-12T13:49:05;99614.40;;;6.50
65765;BMP180;52915;53.718;19.946;2023-03-12T13:54:17;99618.40;;;6.20
65765;BMP180;52915;53.718;19.946;2023-03-12T13:59:23;99620.60;;;6.00
65765;BMP180;52915;53.718;19.946;2023-03-12T14:04:36;99632.80;;;6.10
65765;BMP180;52915;53.718;19.946;2023-03-12T14:20:38;99646.40;;;7.40
65765;BMP180;52915;53.718;19.946;2023-03-12T14:25:46;99644.20;;;7.70
65765;BMP180;52915;53.718;19.946;2023-03-12T14:30:57;99649.40;;;8.00
65765;BMP180;52915;53.718;19.946;2023-03-12T14:36:06;99605.60;;;9.18
65765;BMP180;52915;53.718;19.946;2023-03-12T14:41:23;99658.80;;;14.10
65765;BMP180;52915;53.718;19.946;2023-03-12T14:46:32;99589.20;;;16.14
65765;BMP180;52915;53.718;19.946;2023-03-12T14:51:36;99685.80;;;18.66
65765;BMP180;52915;53.718;19.946;2023-03-12T14:56:44;99652.40;;;17.38
65765;BMP180;52915;53.718;19.946;2023-03-12T15:01:48;99667.40;;;16.28
65765;BMP180;52915;53.718;19.946;2023-03-12T15:06:59;99650.00;;;15.04
65765;BMP180;52915;53.718;19.946;2023-03-12T15:12:21;99677.60;;;14.32
65765;BMP180;52915;53.718;19.946;2023-03-12T15:17:29;99680.60;;;11.56
65765;BMP180;52915;53.718;19.946;2023-03-12T15:22:35;99681.20;;;10.80
65765;BMP180;52915;53.718;19.946;2023-03-12T15:27:39;99678.40;;;10.40
65765;BMP180;52915;53.718;19.946;2023-03-12T15:38:17;99682.20;;;8.46
65765;BMP180;52915;53.718;19.946;2023-03-12T15:43:24;99680.40;;;7.50
65765;BMP180;52915;53.718;19.946;2023-03-12T15:48:39;99677.40;;;6.78
65765;BMP180;52915;53.718;19.946;2023-03-12T15:53:43;99673.00;;;6.10
65765;BMP180;52915;53.718;19.946;2023-03-12T15:59:01;99677.80;;;5.60
65765;BMP180;52915;53.718;19.946;2023-03-12T16:04:05;99680.20;;;5.10
65765;BMP180;52915;53.718;19.946;2023-03-12T16:09:32;99675.60;;;4.70
65765;BMP180;52915;53.718;19.946;2023-03-12T16:14:39;99676.40;;;4.26
65765;BMP180;52915;53.718;19.946;2023-03-12T16:19:44;99676.40;;;3.90
65765;BMP180;52915;53.718;19.946;2023-03-12T16:24:49;99678.60;;;3.50
65765;BMP180;52915;53.718;19.946;2023-03-12T16:29:55;99688.40;;;3.20
65765;BMP180;52915;53.718;19.946;2023-03-12T16:35:00;99685.00;;;3.00
65765;BMP180;52915;53.718;19.946;2023-03-12T16:40:07;99690.80;;;2.84
65765;BMP180;52915;53.718;19.946;2023-03-12T16:45:15;99695.80;;;2.70
65765;BMP180;52915;53.718;19.946;2023-03-12T16:50:22;99700.60;;;2.50
65765;BMP180;52915;53.718;19.946;2023-03-12T16:55:28;99704.80;;;2.30
65765;BMP180;52915;53.718;19.946;2023-03-12T17:00:33;99704.00;;;2.00
65765;BMP180;52915;53.718;19.946;2023-03-12T17:05:38;99709.80;;;1.80
65765;BMP180;52915;53.718;19.946;2023-03-12T17:10:42;99720.80;;;1.50
65765;BMP180;52915;53.718;19.946;2023-03-12T17:15:49;99725.80;;;1.34
65765;BMP180;52915;53.718;19.946;2023-03-12T17:20:53;99739.20;;;1.12
65765;BMP180;52915;53.718;19.946;2023-03-12T17:26:02;99740.60;;;0.92
65765;BMP180;52915;53.718;19.946;2023-03-12T17:31:10;99741.20;;;0.80
65765;BMP180;52915;53.718;19.946;2023-03-12T17:36:14;99731.40;;;0.70
65765;BMP180;52915;53.718;19.946;2023-03-12T17:41:18;99722.80;;;0.54
65765;BMP180;52915;53.718;19.946;2023-03-12T17:46:30;99733.00;;;0.40
65765;BMP180;52915;53.718;19.946;2023-03-12T17:51:34;99727.00;;;0.40
65765;BMP180;52915;53.718;19.946;2023-03-12T17:56:38;99725.60;;;0.30
65765;BMP180;52915;53.718;19.946;2023-03-12T18:01:41;99728.20;;;0.30
65765;BMP180;52915;53.718;19.946;2023-03-12T18:06:45;99729.80;;;0.30
65765;BMP180;52915;53.718;19.946;2023-03-12T18:11:50;99733.60;;;0.20
65765;BMP180;52915;53.718;19.946;2023-03-12T18:16:54;99745.80;;;0.20
65765;BMP180;52915;53.718;19.946;2023-03-12T18:21:58;99748.80;;;0.12
65765;BMP180;52915;53.718;19.946;2023-03-12T18:27:02;99759.00;;;0.10
65765;BMP180;52915;53.718;19.946;2023-03-12T18:32:07;99760.20;;;0.06
65765;BMP180;52915;53.718;19.946;2023-03-12T18:37:11;99759.60;;;0.00
65765;BMP180;52915;53.718;19.946;2023-03-12T18:42:16;99762.80;;;0.00
65765;BMP180;52915;53.718;19.946;2023-03-12T18:47:20;99762.40;;;-0.10
65765;BMP180;52915;53.718;19.946;2023-03-12T18:52:27;99759.80;;;-0.10
65765;BMP180;52915;53.718;19.946;2023-03-12T18:57:32;99762.20;;;-0.20
65765;BMP180;52915;53.718;19.946;2023-03-12T19:02:40;99768.60;;;-0.24
65765;BMP180;52915;53.718;19.946;2023-03-12T19:07:51;99771.00;;;-0.30
65765;BMP180;52915;53.718;19.946;2023-03-12T19:12:58;99773.20;;;-0.30
65765;BMP180;52915;53.718;19.946;2023-03-12T19:18:03;99775.60;;;-0.40
65765;BMP180;52915;53.718;19.946;2023-03-12T19:23:10;99785.20;;;-0.40
65765;BMP180;52915;53.718;19.946;2023-03-12T19:28:14;99788.80;;;-0.50
65765;BMP180;52915;53.718;19.946;2023-03-12T19:33:19;99788.80;;;-0.50
65765;BMP180;52915;53.718;19.946;2023-03-12T19:38:24;99795.60;;;-0.56
65765;BMP180;52915;53.718;19.946;2023-03-12T19:43:28;99777.60;;;-0.60
65765;BMP180;52915;53.718;19.946;2023-03-12T19:48:33;99784.20;;;-0.66
65765;BMP180;52915;53.718;19.946;2023-03-12T19:53:37;99789.20;;;-0.68
65765;BMP180;52915;53.718;19.946;2023-03-12T19:58:41;99787.60;;;-0.60
65765;BMP180;52915;53.718;19.946;2023-03-12T20:03:45;99777.60;;;-0.60
65765;BMP180;52915;53.718;19.946;2023-03-12T20:08:51;99772.00;;;-0.60
65765;BMP180;52915;53.718;19.946;2023-03-12T20:13:55;99763.80;;;-0.56
65765;BMP180;52915;53.718;19.946;2023-03-12T20:19:02;99757.40;;;-0.50
65765;BMP180;52915;53.718;19.946;2023-03-12T20:24:06;99756.20;;;-0.50
65765;BMP180;52915;53.718;19.946;2023-03-12T20:29:10;99754.80;;;-0.40
65765;BMP180;52915;53.718;19.946;2023-03-12T20:34:14;99751.40;;;-0.40
65765;BMP180;52915;53.718;19.946;2023-03-12T20:39:18;99755.80;;;-0.40
65765;BMP180;52915;53.718;19.946;2023-03-12T20:44:22;99759.80;;;-0.30
65765;BMP180;52915;53.718;19.946;2023-03-12T20:49:26;99766.00;;;-0.40
65765;BMP180;52915;53.718;19.946;2023-03-12T20:54:31;99765.40;;;-0.40
65765;BMP180;52915;53.718;19.946;2023-03-12T20:59:35;99770.80;;;-0.40
65765;BMP180;52915;53.718;19.946;2023-03-12T21:04:41;99770.00;;;-0.20
65765;BMP180;52915;53.718;19.946;2023-03-12T21:09:45;99769.00;;;0.00
65765;BMP180;52915;53.718;19.946;2023-03-12T21:14:49;99765.40;;;0.00
65765;BMP180;52915;53.718;19.946;2023-03-12T21:19:54;99746.20;;;-0.10
65765;BMP180;52915;53.718;19.946;2023-03-12T21:24:58;99740.80;;;-0.20
65765;BMP180;52915;53.718;19.946;2023-03-12T21:30:04;99736.60;;;-0.20
65765;BMP180;52915;53.718;19.946;2023-03-12T21:35:09;99736.40;;;-0.10
65765;BMP180;52915;53.718;19.946;2023-03-12T21:40:15;99726.80;;;-0.10
65765;BMP180;52915;53.718;19.946;2023-03-12T21:45:22;99724.20;;;0.00
65765;BMP180;52915;53.718;19.946;2023-03-12T21:50:30;99713.60;;;0.10
65765;BMP180;52915;53.718;19.946;2023-03-12T21:55:34;99705.40;;;0.30
65765;BMP180;52915;53.718;19.946;2023-03-12T22:00:39;99696.20;;;0.40
65765;BMP180;52915;53.718;19.946;2023-03-12T22:05:49;99690.00;;;0.40
65765;BMP180;52915;53.718;19.946;2023-03-12T22:10:54;99675.60;;;0.30
65765;BMP180;52915;53.718;19.946;2023-03-12T22:16:00;99682.60;;;0.20
65765;BMP180;52915;53.718;19.946;2023-03-12T22:21:05;99684.00;;;0.02
65765;BMP180;52915;53.718;19.946;2023-03-12T22:26:10;99675.00;;;-0.10
65765;BMP180;52915;53.718;19.946;2023-03-12T22:31:14;99671.20;;;-0.20
65765;BMP180;52915;53.718;19.946;2023-03-12T22:36:18;99676.20;;;-0.30
65765;BMP180;52915;53.718;19.946;2023-03-12T22:41:26;99675.00;;;-0.40
65765;BMP180;52915;53.718;19.946;2023-03-12T22:46:31;99668.20;;;-0.58
65765;BMP180;52915;53.718;19.946;2023-03-12T22:51:36;99677.80;;;-0.60
65765;BMP180;52915;53.718;19.946;2023-03-12T22:56:39;99674.80;;;-0.68
65765;BMP180;52915;53.718;19.946;2023-03-12T23:01:43;99655.60;;;-0.70
65765;BMP180;52915;53.718;19.946;2023-03-12T23:06:47;99660.80;;;-0.60
65765;BMP180;52915;53.718;19.946;2023-03-12T23:11:52;99666.80;;;-0.40
65765;BMP180;52915;53.718;19.946;2023-03-12T23:16:55;99661.00;;;-0.20
65765;BMP180;52915;53.718;19.946;2023-03-12T23:21:59;99651.40;;;-0.20
65765;BMP180;52915;53.718;19.946;2023-03-12T23:27:04;99652.20;;;-0.30
65765;BMP180;52915;53.718;19.946;2023-03-12T23:32:08;99648.60;;;-0.42
65765;BMP180;52915;53.718;19.946;2023-03-12T23:37:12;99649.60;;;-0.54
65765;BMP180;52915;53.718;19.946;2023-03-12T23:42:16;99645.00;;;-0.60
65765;BMP180;52915;53.718;19.946;2023-03-12T23:47:20;99653.60;;;-0.70
65765;BMP180;52915;53.718;19.946;2023-03-12T23:52:27;99652.00;;;-0.70
65765;BMP180;52915;53.718;19.946;2023-03-12T23:57:30;99645.60;;;-0.78
